createdAt,value
2018-04-14T00:00:33.778Z,56.70
2018-04-14T00:03:02.667Z,56.63
2018-04-14T00:05:31.642Z,55.90
2018-04-14T00:08:00.463Z,57.20
2018-04-14T00:10:29.278Z,57.37
2018-04-14T00:12:58.411Z,55.83
2018-04-14T00:15:27.230Z,55.23
2018-04-14T00:17:56.347Z,58.83
2018-04-14T00:20:25.209Z,62.40
2018-04-14T00:22:54.213Z,60.17
2018-04-14T00:25:23.855Z,61.23
2018-04-14T00:27:52.742Z,59.73
2018-04-14T00:30:22.704Z,59.57
2018-04-14T00:32:51.853Z,56.80
2018-04-14T00:35:21.458Z,55.53
2018-04-14T00:37:50.344Z,52.93
2018-04-14T00:40:19.131Z,52.40
2018-04-14T00:42:48.141Z,53.60
2018-04-14T00:45:17.140Z,54.00
2018-04-14T00:47:46.673Z,54.03
2018-04-14T00:50:16.396Z,54.47
2018-04-14T00:52:45.268Z,58.20
2018-04-14T00:55:14.168Z,59.93
2018-04-14T00:57:43.246Z,62.90
2018-04-14T01:00:11.998Z,58.47
2018-04-14T01:02:40.861Z,57.97
2018-04-14T01:05:09.652Z,64.77
2018-04-14T01:07:38.744Z,63.20
2018-04-14T01:10:07.594Z,68.03
2018-04-14T01:12:36.463Z,69.73
2018-04-14T01:15:05.372Z,63.93
2018-04-14T01:17:35.106Z,61.83
2018-04-14T01:20:04.769Z,61.40
2018-04-14T01:22:34.371Z,60.60
2018-04-14T01:25:03.539Z,58.50
2018-04-14T01:27:32.311Z,57.47
2018-04-14T01:30:01.051Z,58.40
2018-04-14T01:32:29.990Z,57.17
2018-04-14T01:34:59.054Z,58.67
2018-04-14T01:37:28.034Z,57.30
2018-04-14T01:39:57.413Z,59.60
2018-04-14T01:42:26.275Z,60.80
2018-04-14T01:44:55.604Z,59.53
2018-04-14T01:47:25.270Z,61.17
2018-04-14T01:49:54.016Z,58.07
2018-04-14T01:52:22.847Z,58.57
2018-04-14T01:54:52.553Z,59.93
2018-04-14T01:57:21.414Z,61.43
2018-04-14T01:59:50.192Z,62.33
2018-04-14T02:02:19.810Z,61.00
2018-04-14T02:04:48.622Z,58.57
2018-04-14T02:07:17.534Z,61.87
2018-04-14T02:09:46.666Z,59.77
2018-04-14T02:12:15.736Z,57.60
2018-04-14T02:14:44.604Z,57.57
2018-04-14T02:17:13.290Z,56.33
2018-04-14T02:19:42.384Z,55.63
2018-04-14T02:22:11.137Z,59.60
2018-04-14T02:24:39.903Z,61.30
2018-04-14T02:27:08.616Z,62.53
2018-04-14T02:29:38.224Z,65.13
2018-04-14T02:32:07.732Z,65.47
2018-04-14T02:34:36.585Z,65.30
2018-04-14T02:37:05.408Z,66.83
2018-04-14T02:39:34.944Z,67.83
2018-04-14T02:42:03.949Z,65.60
2018-04-14T02:44:32.778Z,66.67
2018-04-14T02:47:02.652Z,66.57
2018-04-14T02:49:32.092Z,67.83
2018-04-14T02:52:01.649Z,66.10
2018-04-14T02:54:30.449Z,65.17
2018-04-14T02:56:59.180Z,70.23
2018-04-14T02:59:28.019Z,64.30
2018-04-14T03:01:56.780Z,64.27
2018-04-14T03:04:25.612Z,59.57
2018-04-14T03:06:55.221Z,61.83
2018-04-14T03:09:24.044Z,63.63
2018-04-14T03:11:53.029Z,61.33
2018-04-14T03:14:22.057Z,65.37
2018-04-14T03:16:50.774Z,65.17
2018-04-14T03:19:19.599Z,64.27
2018-04-14T03:21:48.394Z,63.77
2018-04-14T03:24:17.432Z,66.83
2018-04-14T03:26:46.237Z,67.93
2018-04-14T03:29:15.111Z,70.07
2018-04-14T03:31:44.132Z,71.93
2018-04-14T03:34:12.853Z,74.57
2018-04-14T03:36:41.809Z,79.27
2018-04-14T03:39:10.583Z,80.00
2018-04-14T03:41:39.609Z,83.00
2018-04-14T03:44:08.400Z,83.07
2018-04-14T03:46:37.197Z,77.67
2018-04-14T03:49:06.015Z,79.90
2018-04-14T03:51:35.773Z,80.03
2018-04-14T03:54:04.734Z,77.83
2018-04-14T03:56:33.675Z,69.93
2018-04-14T03:59:02.561Z,62.90
2018-04-14T04:01:31.397Z,60.10
2018-04-14T04:04:00.456Z,61.57
2018-04-14T04:06:29.589Z,62.87
2018-04-14T04:08:59.418Z,65.03
2018-04-14T04:11:28.453Z,63.47
2018-04-14T04:13:57.366Z,64.93
2018-04-14T04:16:26.221Z,65.13
2018-04-14T04:19:19.786Z,67.17
2018-04-14T04:22:01.527Z,68.80
2018-04-14T04:24:41.953Z,68.40
2018-04-14T04:27:11.421Z,66.63
2018-04-14T04:29:40.117Z,67.83
2018-04-14T04:32:08.628Z,65.10
2018-04-14T04:34:38.011Z,65.97
2018-04-14T04:37:06.644Z,65.07
2018-04-14T04:39:35.083Z,64.57
2018-04-14T04:42:03.455Z,64.60
2018-04-14T04:44:32.931Z,65.40
2018-04-14T04:47:02.797Z,63.67
2018-04-14T04:49:31.509Z,63.50
2018-04-14T04:52:00.003Z,58.70
2018-04-14T04:54:28.511Z,59.33
2018-04-14T04:56:57.149Z,61.23
2018-04-14T04:59:25.711Z,61.97
2018-04-14T05:01:54.301Z,58.70
2018-04-14T05:04:23.056Z,61.90
2018-04-14T05:06:51.646Z,64.90
2018-04-14T05:09:20.558Z,67.53
2018-04-14T05:11:50.273Z,68.23
2018-04-14T05:14:19.071Z,67.93
2018-04-14T05:16:47.603Z,96.20
2018-04-14T05:19:16.227Z,71.60
2018-04-14T05:21:44.754Z,75.13
2018-04-14T05:24:13.458Z,88.77
2018-04-14T05:26:42.097Z,81.83
2018-04-14T05:29:10.633Z,111.80
2018-04-14T05:31:39.157Z,87.60
2018-04-14T05:34:07.707Z,70.83
2018-04-14T05:36:37.113Z,74.00
2018-04-14T05:39:06.771Z,79.67
2018-04-14T05:41:36.203Z,72.53
2018-04-14T05:44:04.753Z,76.53
2018-04-14T05:46:33.456Z,65.10
2018-04-14T05:49:02.293Z,65.73
2018-04-14T05:51:30.938Z,62.37
2018-04-14T05:53:59.541Z,63.53
2018-04-14T05:56:28.735Z,65.40
2018-04-14T05:58:57.535Z,65.57
2018-04-14T06:01:26.904Z,67.13
2018-04-14T06:03:55.454Z,63.63
2018-04-14T06:06:24.180Z,67.13
2018-04-14T06:08:52.794Z,68.07
2018-04-14T06:11:21.299Z,66.50
2018-04-14T06:13:49.775Z,64.67
2018-04-14T06:16:18.540Z,59.83
2018-04-14T06:18:47.447Z,58.67
2018-04-14T06:21:17.964Z,58.37
2018-04-14T06:23:46.584Z,57.00
2018-04-14T06:26:15.046Z,55.90
2018-04-14T06:28:44.390Z,52.27
2018-04-14T06:31:12.904Z,52.27
2018-04-14T06:33:41.558Z,51.70
2018-04-14T06:36:10.064Z,51.17
2018-04-14T06:38:38.714Z,54.20
2018-04-14T06:41:07.632Z,53.50
2018-04-14T06:43:36.332Z,55.77
2018-04-14T06:46:05.832Z,53.30
2018-04-14T06:48:34.312Z,56.63
2018-04-14T06:51:02.941Z,55.87
2018-04-14T06:53:31.501Z,55.90
2018-04-14T06:56:00.878Z,56.50
2018-04-14T06:58:29.402Z,57.60
2018-04-14T07:00:57.977Z,55.50
2018-04-14T07:03:26.599Z,53.50
2018-04-14T07:05:55.974Z,54.07
2018-04-14T07:08:24.530Z,55.40
2018-04-14T07:10:53.035Z,56.30
2018-04-14T07:13:21.867Z,57.20
2018-04-14T07:15:50.439Z,57.53
2018-04-14T07:18:19.144Z,57.53
2018-04-14T07:20:47.809Z,60.70
2018-04-14T07:23:16.514Z,61.67
2018-04-14T07:25:45.244Z,62.00
2018-04-14T07:28:13.866Z,59.77
2018-04-14T07:30:42.637Z,58.53
2018-04-14T07:33:11.415Z,59.80
2018-04-14T07:35:40.191Z,59.80
2018-04-14T07:38:09.081Z,57.87
2018-04-14T07:40:38.425Z,58.97
2018-04-14T07:43:07.502Z,60.90
2018-04-14T07:45:36.081Z,60.87
2018-04-14T07:48:04.849Z,61.47
2018-04-14T07:50:34.115Z,61.33
2018-04-14T07:53:02.553Z,60.13
2018-04-14T07:55:31.026Z,55.80
2018-04-14T07:57:59.721Z,58.93
2018-04-14T08:00:28.326Z,58.50
2018-04-14T08:02:57.041Z,58.67
2018-04-14T08:05:25.529Z,56.67
2018-04-14T08:07:54.079Z,56.33
2018-04-14T08:10:22.659Z,58.30
2018-04-14T08:12:51.386Z,57.67
2018-04-14T08:15:19.839Z,57.77
2018-04-14T08:17:48.479Z,57.23
2018-04-14T08:20:17.052Z,56.43
2018-04-14T08:22:45.721Z,55.17
2018-04-14T08:25:14.399Z,59.20
2018-04-14T08:27:43.645Z,57.23
2018-04-14T08:30:12.151Z,58.97
2018-04-14T08:32:40.859Z,60.33
2018-04-14T08:35:10.423Z,56.83
2018-04-14T08:37:39.182Z,59.33
2018-04-14T08:40:08.544Z,61.30
2018-04-14T08:42:37.031Z,62.50
2018-04-14T08:45:05.581Z,58.83
2018-04-14T08:47:34.244Z,58.83
2018-04-14T08:50:02.761Z,59.37
2018-04-14T08:52:31.660Z,60.83
2018-04-14T08:55:00.304Z,62.37
2018-04-14T08:57:28.884Z,62.47
2018-04-14T08:59:58.158Z,58.67
2018-04-14T09:02:26.711Z,62.83
2018-04-14T09:04:55.277Z,60.87
2018-04-14T09:07:24.026Z,59.00
2018-04-14T09:09:52.684Z,60.63
2018-04-14T09:12:21.169Z,62.03
2018-04-14T09:14:49.858Z,61.07
2018-04-14T09:17:18.427Z,61.20
2018-04-14T09:19:47.379Z,59.60
2018-04-14T09:22:16.142Z,59.03
2018-04-14T09:24:44.893Z,59.90
2018-04-14T09:27:13.871Z,62.33
2018-04-14T09:29:43.675Z,61.40
2018-04-14T09:32:13.145Z,59.10
2018-04-14T09:34:42.732Z,62.13
2018-04-14T09:37:11.534Z,61.30
2018-04-14T09:39:41.330Z,58.00
2018-04-14T09:42:10.336Z,65.13
2018-04-14T09:44:39.455Z,62.63
2018-04-14T09:47:08.455Z,59.27
2018-04-14T09:49:38.596Z,57.97
2018-04-14T09:52:07.402Z,55.37
2018-04-14T09:54:37.007Z,58.37
2018-04-14T09:57:06.649Z,56.37
2018-04-14T09:59:35.420Z,55.63
2018-04-14T10:02:04.554Z,55.07
2018-04-14T10:04:35.142Z,56.57
2018-04-14T10:07:03.966Z,54.10
2018-04-14T10:09:32.918Z,55.93
2018-04-14T10:12:01.749Z,54.93
2018-04-14T10:14:30.561Z,55.27
2018-04-14T10:17:00.123Z,54.97
2018-04-14T10:19:28.957Z,52.93
2018-04-14T10:21:57.751Z,52.17
2018-04-14T10:24:26.605Z,53.50
2018-04-14T10:26:56.394Z,51.90
2018-04-14T10:29:25.527Z,51.23
2018-04-14T10:31:54.607Z,51.20
2018-04-14T10:34:23.363Z,49.03
2018-04-14T10:36:52.320Z,49.30
2018-04-14T10:39:21.201Z,49.37
2018-04-14T10:41:50.951Z,50.53
2018-04-14T10:44:19.676Z,49.27
2018-04-14T10:46:48.738Z,49.30
2018-04-14T10:49:17.535Z,50.43
2018-04-14T10:51:47.316Z,47.97
2018-04-14T10:54:16.247Z,47.93
2018-04-14T10:56:45.886Z,47.53
2018-04-14T10:59:15.592Z,49.47
2018-04-14T11:01:45.236Z,46.47
2018-04-14T11:04:14.079Z,47.63
2018-04-14T11:06:43.640Z,49.00
2018-04-14T11:09:12.899Z,48.90
2018-04-14T11:11:41.769Z,47.73
2018-04-14T11:14:11.925Z,46.10
2018-04-14T11:16:40.652Z,48.53
2018-04-14T11:19:09.491Z,46.43
2018-04-14T11:21:38.388Z,47.80
2018-04-14T11:24:07.900Z,46.63
2018-04-14T11:26:37.453Z,47.90
2018-04-14T11:29:06.418Z,46.33
2018-04-14T11:31:35.331Z,45.53
2018-04-14T11:34:04.477Z,44.97
2018-04-14T11:36:34.059Z,44.63
2018-04-14T11:39:02.876Z,45.73
2018-04-14T11:41:31.710Z,45.20
2018-04-14T11:44:00.447Z,45.77
2018-04-14T11:46:30.075Z,46.77
2018-04-14T11:48:59.888Z,47.57
2018-04-14T11:51:28.681Z,45.60
2018-04-14T11:53:57.384Z,45.27
2018-04-14T11:56:26.120Z,44.17
2018-04-14T11:58:55.690Z,45.70
2018-04-14T12:01:24.712Z,46.33
2018-04-14T12:03:54.216Z,46.07
2018-04-14T12:06:23.305Z,46.73
2018-04-14T12:08:52.173Z,45.77
2018-04-14T12:11:21.090Z,46.80
2018-04-14T12:13:50.844Z,44.63
2018-04-14T12:16:19.741Z,46.63
2018-04-14T12:18:49.304Z,45.23
2018-04-14T12:21:18.192Z,44.93
2018-04-14T12:23:52.316Z,45.43
2018-04-14T12:26:22.979Z,42.03
2018-04-14T12:28:54.848Z,44.37
2018-04-14T12:31:24.296Z,42.50
2018-04-14T12:33:55.822Z,41.13
2018-04-14T12:36:28.064Z,41.20
2018-04-14T12:38:57.519Z,42.67
2018-04-14T12:41:28.671Z,43.43
2018-04-14T12:43:57.863Z,43.60
2018-04-14T12:46:26.669Z,42.63
2018-04-14T12:48:55.405Z,43.30
2018-04-14T12:51:24.214Z,40.17
2018-04-14T12:53:53.850Z,40.97
2018-04-14T12:56:22.593Z,40.93
2018-04-14T12:58:51.419Z,40.23
2018-04-14T13:01:20.676Z,41.00
2018-04-14T13:03:49.645Z,40.13
2018-04-14T13:06:18.555Z,39.37
2018-04-14T13:08:48.430Z,41.00
2018-04-14T13:11:18.376Z,40.80
2018-04-14T13:13:47.943Z,37.57
2018-04-14T13:16:17.338Z,38.70
2018-04-14T13:18:46.191Z,36.57
2018-04-14T13:21:18.244Z,40.07
2018-04-14T13:23:47.128Z,37.93
2018-04-14T13:26:15.937Z,37.77
2018-04-14T13:28:44.785Z,40.00
2018-04-14T13:31:14.428Z,39.23
2018-04-14T13:33:43.403Z,36.73
2018-04-14T13:36:12.172Z,37.83
2018-04-14T13:38:41.101Z,36.43
2018-04-14T13:41:10.719Z,37.73
2018-04-14T13:43:39.684Z,35.37
2018-04-14T13:46:09.232Z,35.77
2018-04-14T13:48:38.190Z,35.03
2018-04-14T13:51:07.189Z,34.77
2018-04-14T13:53:36.017Z,38.10
2018-04-14T13:56:05.078Z,36.00
2018-04-14T13:58:34.642Z,34.97
2018-04-14T14:01:04.172Z,34.63
2018-04-14T14:03:33.078Z,34.30
2018-04-14T14:06:02.635Z,31.00
2018-04-14T14:08:31.373Z,32.10
2018-04-14T14:11:00.220Z,30.93
2018-04-14T14:13:29.858Z,29.03
2018-04-14T14:15:59.011Z,30.20
2018-04-14T14:18:27.805Z,31.33
2018-04-14T14:20:56.842Z,29.60
2018-04-14T14:23:26.702Z,29.30
2018-04-14T14:25:55.449Z,29.80
2018-04-14T14:28:24.315Z,29.73
2018-04-14T14:30:54.160Z,30.03
2018-04-14T14:33:23.166Z,31.93
2018-04-14T14:35:52.142Z,30.10
2018-04-14T14:38:20.995Z,29.33
2018-04-14T14:40:49.723Z,30.27
2018-04-14T14:43:18.500Z,30.23
2018-04-14T14:45:47.649Z,31.07
2018-04-14T14:48:16.426Z,30.17
2018-04-14T14:50:45.172Z,30.23
2018-04-14T14:53:14.749Z,29.37
2018-04-14T14:55:43.613Z,30.00
2018-04-14T14:58:12.396Z,29.77
2018-04-14T15:00:41.152Z,29.53
2018-04-14T15:03:10.546Z,29.47
2018-04-14T15:05:39.534Z,29.20
2018-04-14T15:08:09.212Z,28.97
2018-04-14T15:10:38.013Z,31.00
2018-04-14T15:13:07.061Z,29.70
2018-04-14T15:15:35.967Z,29.17
2018-04-14T15:18:04.756Z,32.30
2018-04-14T15:20:33.574Z,30.80
2018-04-14T15:23:02.322Z,28.83
2018-04-14T15:25:31.613Z,30.57
2018-04-14T15:28:00.468Z,30.17
2018-04-14T15:30:30.434Z,30.33
2018-04-14T15:32:59.237Z,31.13
2018-04-14T15:35:28.829Z,30.13
2018-04-14T15:37:57.727Z,31.23
2018-04-14T15:40:26.509Z,31.50
2018-04-14T15:42:55.296Z,31.47
2018-04-14T15:45:24.524Z,31.90
2018-04-14T15:47:53.244Z,32.97
2018-04-14T15:50:22.053Z,30.93
2018-04-14T15:52:50.762Z,30.97
2018-04-14T15:55:20.194Z,34.13
2018-04-14T15:57:49.000Z,32.50
2018-04-14T16:00:17.943Z,32.67
2018-04-14T16:02:46.981Z,31.43
2018-04-14T16:05:15.938Z,32.47
2018-04-14T16:07:44.945Z,31.57
2018-04-14T16:10:14.671Z,32.90
2018-04-14T16:12:43.369Z,33.63
2018-04-14T16:15:13.977Z,32.50
2018-04-14T16:17:42.923Z,32.47
2018-04-14T16:20:12.490Z,34.37
2018-04-14T16:22:41.546Z,36.37
2018-04-14T16:25:10.534Z,36.83
2018-04-14T16:27:40.176Z,41.23
2018-04-14T16:30:09.369Z,38.23
2018-04-14T16:32:38.950Z,35.13
2018-04-14T16:35:07.918Z,35.77
2018-04-14T16:37:37.021Z,37.20
2018-04-14T16:40:06.380Z,36.23
2018-04-14T16:42:36.334Z,37.07
2018-04-14T16:45:05.594Z,37.13
2018-04-14T16:47:34.429Z,39.17
2018-04-14T16:50:03.259Z,39.63
2018-04-14T16:52:32.023Z,42.93
2018-04-14T16:55:00.836Z,41.87
2018-04-14T16:57:30.434Z,38.63
2018-04-14T16:59:59.760Z,36.67
2018-04-14T17:02:29.379Z,35.30
2018-04-14T17:04:58.174Z,35.03
2018-04-14T17:07:27.005Z,36.40
2018-04-14T17:09:56.707Z,35.43
2018-04-14T17:12:25.673Z,36.83
2018-04-14T17:14:54.817Z,37.07
2018-04-14T17:17:23.929Z,40.27
2018-04-14T17:19:53.446Z,41.10
2018-04-14T17:22:22.397Z,38.77
2018-04-14T17:24:51.303Z,40.23
2018-04-14T17:27:21.048Z,38.27
2018-04-14T17:29:50.768Z,38.60
2018-04-14T17:32:19.489Z,37.47
2018-04-14T17:34:48.343Z,35.47
2018-04-14T17:37:17.157Z,33.30
2018-04-14T17:39:46.068Z,35.10
2018-04-14T17:42:14.862Z,36.03
2018-04-14T17:44:46.003Z,36.63
2018-04-14T17:47:15.351Z,37.00
2018-04-14T17:49:46.884Z,38.10
2018-04-14T17:52:17.354Z,38.60
2018-04-14T17:54:47.033Z,39.70
2018-04-14T17:57:17.925Z,41.50
2018-04-14T17:59:48.049Z,39.00
2018-04-14T18:02:19.030Z,39.87
2018-04-14T18:04:49.775Z,37.60
2018-04-14T18:07:20.504Z,40.53
2018-04-14T18:09:49.350Z,40.10
2018-04-14T18:12:18.407Z,40.37
2018-04-14T18:14:48.538Z,42.23
2018-04-14T18:17:17.894Z,45.17
2018-04-14T18:19:48.794Z,67.13
2018-04-14T18:22:20.834Z,65.30
2018-04-14T18:24:52.237Z,53.53
2018-04-14T18:27:22.313Z,47.40
2018-04-14T18:29:53.701Z,43.70
2018-04-14T18:32:23.946Z,43.77
2018-04-14T18:34:54.361Z,43.37
2018-04-14T18:37:24.845Z,44.50
2018-04-14T18:39:54.730Z,42.47
2018-04-14T18:42:23.575Z,42.40
2018-04-14T18:44:53.214Z,44.37
2018-04-14T18:47:23.001Z,45.53
2018-04-14T18:49:51.913Z,46.60
2018-04-14T18:52:21.222Z,46.27
2018-04-14T18:54:50.615Z,47.63
2018-04-14T18:57:20.280Z,47.10
2018-04-14T18:59:50.229Z,46.17
2018-04-14T19:02:19.412Z,45.83
2018-04-14T19:04:48.306Z,46.93
2018-04-14T19:07:17.020Z,49.27
2018-04-14T19:09:46.021Z,45.70
2018-04-14T19:12:15.480Z,45.27
2018-04-14T19:14:45.895Z,46.03
2018-04-14T19:17:15.062Z,45.70
2018-04-14T19:19:43.840Z,45.47
2018-04-14T19:22:12.742Z,46.73
2018-04-14T19:24:42.413Z,47.33
2018-04-14T19:27:11.172Z,48.17
2018-04-14T19:29:40.789Z,47.93
2018-04-14T19:32:09.672Z,49.03
2018-04-14T19:34:38.496Z,48.10
2018-04-14T19:37:07.382Z,48.93
2018-04-14T19:39:36.914Z,49.60
2018-04-14T19:42:05.796Z,47.27
2018-04-14T19:44:34.707Z,48.93
2018-04-14T19:47:03.773Z,48.50
2018-04-14T19:49:32.569Z,49.20
2018-04-14T19:52:01.487Z,47.27
2018-04-14T19:54:30.499Z,47.93
2018-04-14T19:56:59.289Z,48.43
2018-04-14T19:59:28.107Z,48.60
2018-04-14T20:01:57.727Z,48.80
2018-04-14T20:04:26.591Z,50.40
2018-04-14T20:06:55.572Z,51.17
2018-04-14T20:09:24.810Z,52.33
2018-04-14T20:11:53.867Z,52.83
2018-04-14T20:14:23.542Z,55.30
2018-04-14T20:16:52.501Z,56.00
2018-04-14T20:19:22.146Z,54.87
2018-04-14T20:21:51.375Z,58.50
2018-04-14T20:24:20.272Z,58.83
2018-04-14T20:26:49.899Z,61.47
2018-04-14T20:29:19.360Z,59.40
2018-04-14T20:31:48.175Z,59.50
2018-04-14T20:34:17.967Z,62.70
2018-04-14T20:36:46.943Z,62.83
2018-04-14T20:39:16.161Z,63.67
2018-04-14T20:41:44.969Z,68.07
2018-04-14T20:44:13.849Z,65.87
2018-04-14T20:46:42.737Z,69.30
2018-04-14T20:49:11.726Z,68.63
2018-04-14T20:51:40.525Z,67.70
2018-04-14T20:54:10.335Z,67.03
2018-04-14T20:56:39.994Z,65.47
2018-04-14T20:59:08.764Z,71.90
2018-04-14T21:01:37.682Z,71.17
2018-04-14T21:04:06.705Z,70.43
2018-04-14T21:06:35.484Z,72.33
2018-04-14T21:09:04.579Z,73.70
2018-04-14T21:11:33.368Z,71.33
2018-04-14T21:14:02.208Z,70.13
2018-04-14T21:16:31.203Z,71.10
2018-04-14T21:19:01.020Z,71.40
2018-04-14T21:21:29.992Z,70.63
2018-04-14T21:23:59.545Z,73.50
2018-04-14T21:26:28.291Z,74.60
2018-04-14T21:28:57.153Z,72.27
2018-04-14T21:31:26.743Z,71.97
2018-04-14T21:33:55.748Z,72.40
2018-04-14T21:36:24.644Z,75.80
2018-04-14T21:38:53.567Z,72.20
2018-04-14T21:41:23.150Z,73.50
2018-04-14T21:43:52.727Z,73.17
2018-04-14T21:46:22.331Z,72.60
2018-04-14T21:48:51.877Z,73.47
2018-04-14T21:51:21.110Z,83.03
2018-04-14T21:53:49.931Z,81.50
2018-04-14T21:56:19.901Z,85.40
2018-04-14T21:58:49.434Z,81.70
2018-04-14T22:01:18.249Z,83.13
2018-04-14T22:03:47.101Z,85.67
2018-04-14T22:06:17.167Z,79.33
2018-04-14T22:08:46.279Z,79.10
2018-04-14T22:11:16.160Z,82.03
2018-04-14T22:13:45.552Z,82.73
2018-04-14T22:16:15.657Z,86.67
2018-04-14T22:18:45.398Z,86.17
2018-04-14T22:21:14.409Z,89.40
2018-04-14T22:23:43.392Z,90.87
2018-04-14T22:26:13.828Z,100.93
2018-04-14T22:28:42.996Z,100.17
2018-04-14T22:31:12.647Z,101.77
2018-04-14T22:33:41.472Z,94.70
2018-04-14T22:36:10.292Z,85.90
2018-04-14T22:38:39.225Z,87.63
2018-04-14T22:41:08.435Z,83.90
2018-04-14T22:43:38.387Z,79.23
2018-04-14T22:46:08.423Z,77.23
2018-04-14T22:48:38.629Z,76.07
2018-04-14T22:51:08.191Z,75.00
2018-04-14T22:53:37.627Z,73.83
2018-04-14T22:56:09.740Z,73.93
2018-04-14T22:58:39.164Z,70.10
2018-04-14T23:01:09.454Z,72.47
2018-04-14T23:03:39.003Z,74.37
2018-04-14T23:06:08.943Z,76.73
2018-04-14T23:08:39.627Z,77.07
2018-04-14T23:11:12.993Z,75.57
2018-04-14T23:13:45.529Z,74.23
2018-04-14T23:16:16.844Z,70.60
2018-04-14T23:18:53.519Z,67.40
2018-04-14T23:21:27.212Z,61.53
2018-04-14T23:23:59.490Z,58.63
2018-04-14T23:26:34.204Z,61.27
2018-04-14T23:29:05.178Z,64.73
2018-04-14T23:31:34.169Z,65.23
2018-04-14T23:34:03.761Z,65.73
2018-04-14T23:36:32.481Z,67.80
2018-04-14T23:39:01.702Z,67.87
2018-04-14T23:41:31.355Z,70.37
2018-04-14T23:44:00.919Z,71.30
2018-04-14T23:46:29.694Z,71.67
2018-04-14T23:48:58.416Z,70.63
2018-04-14T23:51:27.148Z,68.60
2018-04-14T23:53:56.749Z,73.87
2018-04-14T23:56:25.805Z,73.97
2018-04-14T23:58:54.568Z,74.03
